Time;durP1;ratioP1;P1;durP2;ratioP2;P2;SDS_P1;SDS_P2;PMS_P1;PMS_P2;Temp;Humidity;BMP_temperature;BMP_pressure;BME280_temperature;BME280_humidity;BME280_pressure;Samples;Min_cycle;Max_cycle;Signal;HPM_P1;HPM_P2
2021/03/20 00:00:51;;;;;;;20.50;9.20;;;;;;;1.10;77.93;99452.23;128251;1107;23816;-60
2021/03/20 00:03:19;;;;;;;26.05;11.25;;;;;;;1.09;77.75;99448.72;128284;1107;22875;-60
2021/03/20 00:05:46;;;;;;;31.73;12.60;;;;;;;1.06;78.80;99449.11;128212;1107;23752;-60
2021/03/20 00:08:17;;;;;;;37.43;14.50;;;;;;;1.05;77.70;99452.81;128316;1107;23721;-60
2021/03/20 00:10:54;;;;;;;26.43;12.03;;;;;;;1.01;78.64;99455.05;128195;1107;22951;-60
2021/03/20 00:13:22;;;;;;;24.40;11.40;;;;;;;0.99;77.83;99440.20;128373;1107;22976;-60
2021/03/20 00:15:52;;;;;;;23.40;12.43;;;;;;;0.97;77.82;99451.13;128206;1108;22871;-60
2021/03/20 00:18:21;;;;;;;25.80;12.05;;;;;;;0.94;77.64;99446.16;128316;1108;23603;-60
2021/03/20 00:20:50;;;;;;;21.40;10.40;;;;;;;0.92;77.81;99450.89;128313;1107;22838;-62
2021/03/20 00:23:17;;;;;;;21.37;11.40;;;;;;;0.92;78.83;99458.11;128188;1107;22841;-60
2021/03/20 00:25:45;;;;;;;20.50;10.00;;;;;;;0.91;77.85;99457.28;128353;1108;22828;-60
2021/03/20 00:28:20;;;;;;;19.80;9.80;;;;;;;0.88;78.58;99454.98;128145;1108;22886;-60
2021/03/20 00:30:49;;;;;;;19.45;9.45;;;;;;;0.86;77.76;99459.74;128315;1108;22883;-60
2021/03/20 00:33:17;;;;;;;15.93;9.17;;;;;;;0.85;77.35;99454.58;128151;1107;23018;-60
2021/03/20 00:35:45;;;;;;;21.63;11.33;;;;;;;0.86;77.01;99458.91;127376;1109;27489;-53
2021/03/20 00:38:12;;;;;;;20.00;9.73;;;;;;;0.89;77.30;99459.33;124487;1108;24696;-57
2021/03/20 00:40:41;;;;;;;15.03;8.57;;;;;;;0.89;75.78;99453.96;128269;1109;22834;-54
2021/03/20 00:43:08;;;;;;;12.07;7.00;;;;;;;0.91;76.68;99454.59;128263;1107;23562;-54
2021/03/20 00:45:37;;;;;;;16.05;8.50;;;;;;;0.89;75.66;99453.96;128337;1108;22825;-54
2021/03/20 00:48:10;;;;;;;28.83;13.13;;;;;;;0.88;76.18;99449.62;128199;1108;23496;-55
2021/03/20 00:50:37;;;;;;;53.80;23.83;;;;;;;0.90;76.43;99447.57;128268;1108;22864;-54
2021/03/20 00:53:05;;;;;;;51.93;23.13;;;;;;;0.95;76.95;99450.50;128194;1108;23483;-54
2021/03/20 00:55:35;;;;;;;37.80;17.93;;;;;;;1.01;76.60;99443.53;128315;1107;23729;-55
2021/03/20 00:58:18;;;;;;;42.20;19.60;;;;;;;1.03;77.35;99446.81;128194;1108;22903;-54
2021/03/20 01:00:46;;;;;;;38.93;20.53;;;;;;;1.06;76.58;99441.05;128321;1107;23778;-54
2021/03/20 01:03:14;;;;;;;41.07;20.37;;;;;;;1.09;77.09;99442.52;128239;1107;22931;-55
2021/03/20 01:05:41;;;;;;;39.30;20.95;;;;;;;1.11;77.46;99433.25;128348;1107;22885;-55
2021/03/20 01:08:09;;;;;;;39.30;21.15;;;;;;;1.15;76.54;99439.05;128242;1107;22839;-55
2021/03/20 01:10:36;;;;;;;38.20;20.27;;;;;;;1.15;76.79;99436.37;128318;1107;23036;-55
2021/03/20 01:13:04;;;;;;;34.50;17.45;;;;;;;1.17;77.16;99443.17;128269;1107;22839;-55
2021/03/20 01:15:32;;;;;;;33.67;17.00;;;;;;;1.18;77.48;99444.00;127689;1107;23118;-55
2021/03/20 01:18:00;;;;;;;34.40;18.10;;;;;;;1.19;77.74;99441.12;128281;1108;22936;-56
2021/03/20 01:20:28;;;;;;;33.80;17.65;;;;;;;1.19;77.53;99440.29;128116;1107;22899;-56
2021/03/20 01:22:55;;;;;;;31.83;15.97;;;;;;;1.19;76.90;99434.92;128371;1107;22879;-56
2021/03/20 01:25:23;;;;;;;26.10;14.63;;;;;;;1.20;77.40;99440.09;128228;1108;23291;-56
2021/03/20 01:27:51;;;;;;;33.20;17.35;;;;;;;1.21;76.14;99438.23;128349;1107;23506;-56
2021/03/20 01:30:27;;;;;;;32.85;18.35;;;;;;;1.17;76.05;99431.61;128259;1107;22980;-56
2021/03/20 01:32:55;;;;;;;38.60;19.73;;;;;;;1.10;75.84;99436.96;128319;1108;22795;-56
2021/03/20 01:35:23;;;;;;;41.17;18.67;;;;;;;1.03;75.74;99436.08;128147;1107;23774;-56
2021/03/20 01:37:50;;;;;;;38.10;20.07;;;;;;;0.96;75.30;99445.97;128384;1108;22820;-56
2021/03/20 01:40:20;;;;;;;42.63;19.80;;;;;;;0.93;75.34;99449.03;128104;1107;23409;-56
2021/03/20 01:42:48;;;;;;;37.85;17.85;;;;;;;0.90;75.53;99447.57;128337;1107;22936;-57
2021/03/20 01:45:26;;;;;;;33.15;16.15;;;;;;;0.89;76.00;99447.77;128199;1108;22868;-56
2021/03/20 01:48:17;;;;;;;28.10;13.80;;;;;;;0.86;76.16;99448.19;128317;1107;22978;-56
2021/03/20 01:50:53;;;;;;;20.55;11.05;;;;;;;0.85;75.37;99451.89;128209;1108;22836;-56
2021/03/20 01:53:31;;;;;;;17.70;10.50;;;;;;;0.83;74.97;99453.94;128319;1107;22955;-56
2021/03/20 01:55:58;;;;;;;14.70;7.40;;;;;;;0.78;74.44;99454.52;128271;1108;22906;-57
2021/03/20 01:58:27;;;;;;;16.53;8.23;;;;;;;0.77;73.36;99460.91;128266;1108;23413;-56
2021/03/20 02:01:05;;;;;;;12.75;8.40;;;;;;;0.78;73.93;99473.29;128197;1107;24803;-56
2021/03/20 02:03:33;;;;;;;14.83;8.03;;;;;;;0.80;73.90;99468.56;128276;1108;22838;-56
2021/03/20 02:06:01;;;;;;;17.37;8.23;;;;;;;0.80;73.80;99471.24;128236;1107;22930;-56
2021/03/20 02:08:29;;;;;;;14.23;8.33;;;;;;;0.77;73.16;99471.62;128351;1107;24112;-56
2021/03/20 02:11:04;;;;;;;13.37;7.57;;;;;;;0.77;73.63;99468.12;128162;1108;22834;-56
2021/03/20 02:13:41;;;;;;;12.55;7.45;;;;;;;0.76;73.78;99469.14;128368;1107;23651;-56
2021/03/20 02:16:11;;;;;;;15.77;8.67;;;;;;;0.76;72.50;99475.33;128247;1108;23892;-56
2021/03/20 02:18:39;;;;;;;14.07;7.87;;;;;;;0.73;72.71;99466.84;128315;1107;22978;-56
2021/03/20 02:21:08;;;;;;;12.97;7.03;;;;;;;0.72;72.28;99465.22;128257;1108;22898;-56
2021/03/20 02:23:48;;;;;;;10.13;6.63;;;;;;;0.73;72.52;99473.03;128267;1107;22829;-56
2021/03/20 02:26:40;;;;;;;14.03;6.23;;;;;;;0.71;71.81;99475.11;128176;1108;22928;-57
2021/03/20 02:29:20;;;;;;;10.45;5.90;;;;;;;0.70;73.23;99478.81;128280;1107;22811;-57
2021/03/20 02:32:09;;;;;;;12.35;6.45;;;;;;;0.66;72.85;99483.73;128236;1107;23042;-57
2021/03/20 02:35:02;;;;;;;9.83;5.87;;;;;;;0.63;73.03;99477.92;128360;1106;22886;-57
2021/03/20 02:37:44;;;;;;;10.87;5.50;;;;;;;0.62;72.69;99485.14;128231;1108;23534;-57
2021/03/20 02:40:51;;;;;;;7.95;5.05;;;;;;;0.53;72.06;99483.63;128276;1108;23976;-57
2021/03/20 02:43:46;;;;;;;10.40;5.43;;;;;;;0.57;72.83;99484.08;128211;1109;22837;-56
2021/03/20 02:46:26;;;;;;;11.00;5.57;;;;;;;0.56;73.14;99483.25;128322;1107;22831;-54
2021/03/20 02:49:14;;;;;;;9.70;5.67;;;;;;;0.51;72.57;99487.53;128189;1109;23561;-54
2021/03/20 02:51:45;;;;;;;11.13;6.40;;;;;;;0.44;73.13;99484.78;128307;1108;22842;-54
2021/03/20 02:54:23;;;;;;;9.77;6.03;;;;;;;0.39;73.14;99484.55;128293;1107;23001;-56
2021/03/20 02:57:01;;;;;;;;;;;;;;;0.35;74.38;99500.18;128219;1108;23940;-56
2021/03/20 02:59:31;;;;;;;11.30;6.15;;;;;;;0.32;75.08;99494.37;128330;1108;21382;-56
2021/03/20 03:02:01;;;;;;;13.53;6.77;;;;;;;0.31;75.27;99495.39;128282;1108;22955;-56
2021/03/20 03:04:30;;;;;;;11.57;6.20;;;;;;;0.28;75.38;99493.12;128155;1108;22835;-56
2021/03/20 03:07:11;;;;;;;12.20;6.53;;;;;;;0.21;75.47;99501.08;128366;1108;23581;-57
2021/03/20 03:09:42;;;;;;;11.27;5.97;;;;;;;0.16;75.15;99500.81;128189;1108;22892;-56
2021/03/20 03:12:16;;;;;;;10.60;6.10;;;;;;;0.14;75.69;99505.56;128269;1107;22906;-57
2021/03/20 03:15:09;;;;;;;10.97;6.03;;;;;;;0.09;75.62;99505.30;128178;1107;22901;-56
2021/03/20 03:17:38;;;;;;;10.67;6.43;;;;;;;0.05;76.01;99508.53;128310;1109;22916;-56
2021/03/20 03:20:14;;;;;;;11.20;6.73;;;;;;;0.00;76.47;99507.25;128176;1108;22875;-56
2021/03/20 03:22:45;;;;;;;10.67;6.37;;;;;;;-0.05;77.54;99511.53;128377;1108;23590;-56
2021/03/20 03:25:14;;;;;;;9.37;5.80;;;;;;;-0.09;77.53;99520.96;128215;1107;22898;-56
2021/03/20 03:27:43;;;;;;;10.70;6.07;;;;;;;-0.12;77.08;99508.77;128288;1107;22806;-56
2021/03/20 03:30:13;;;;;;;11.90;6.53;;;;;;;-0.15;77.77;99516.38;128220;1108;22950;-56
2021/03/20 03:32:44;;;;;;;11.10;6.30;;;;;;;-0.24;77.72;99507.61;128222;1108;22842;-56
2021/03/20 03:35:20;;;;;;;14.83;6.80;;;;;;;-0.20;77.86;99516.11;128171;1108;22926;-56
2021/03/20 03:38:08;;;;;;;14.10;7.97;;;;;;;-0.24;79.34;99514.81;128284;1107;23843;-56
2021/03/20 03:40:39;;;;;;;15.90;8.65;;;;;;;-0.30;78.30;99510.23;128232;1108;22889;-57
2021/03/20 03:43:06;;;;;;;15.90;7.87;;;;;;;-0.35;79.06;99521.49;128388;1108;22887;-56
2021/03/20 03:45:34;;;;;;;12.47;7.47;;;;;;;-0.38;80.00;99511.98;128220;1108;22835;-56
2021/03/20 03:48:02;;;;;;;13.87;8.40;;;;;;;-0.39;79.80;99513.00;128372;1107;22842;-56
2021/03/20 03:53:14;;;;;;;13.47;7.37;;;;;;;-0.35;80.06;99508.11;124385;1111;24402;-55
2021/03/20 03:55:42;;;;;;;14.43;8.50;;;;;;;-0.29;80.05;99515.41;128178;1112;22925;-56
2021/03/20 03:58:32;;;;;;;18.53;9.43;;;;;;;-0.28;80.78;99510.84;128306;1110;22873;-55
2021/03/20 04:01:21;;;;;;;17.17;10.03;;;;;;;-0.26;80.36;99514.17;128183;1110;22823;-54
2021/03/20 04:03:57;;;;;;;14.20;9.57;;;;;;;-0.22;80.52;99515.46;128296;1110;22841;-54
2021/03/20 04:06:48;;;;;;;18.62;10.90;;;;;;;-0.20;80.67;99514.27;128198;1111;22822;-54
2021/03/20 04:09:42;;;;;;;22.17;10.87;;;;;;;-0.15;80.69;99517.21;128307;1111;23659;-54
2021/03/20 04:12:19;;;;;;;24.30;10.93;;;;;;;-0.12;80.45;99518.66;128112;1111;22960;-54
2021/03/20 04:15:12;;;;;;;25.57;12.83;;;;;;;-0.08;80.23;99522.63;128339;1110;23019;-54
2021/03/20 04:18:09;;;;;;;22.93;13.83;;;;;;;-0.04;80.37;99521.23;128328;1111;22810;-55
2021/03/20 04:20:52;;;;;;;22.83;12.97;;;;;;;-0.01;79.99;99527.05;128205;1111;23871;-54
2021/03/20 04:23:28;;;;;;;22.63;12.37;;;;;;;0.02;81.12;99524.98;128296;1111;22994;-54
2021/03/20 04:25:58;;;;;;;18.70;9.90;;;;;;;0.02;80.85;99527.66;128171;1111;22983;-55
2021/03/20 04:28:44;;;;;;;14.63;8.10;;;;;;;0.02;79.98;99528.48;128271;1110;22979;-55
2021/03/20 04:31:26;;;;;;;10.67;7.57;;;;;;;0.01;80.40;99526.83;128171;1110;23430;-55
2021/03/20 04:34:20;;;;;;;16.60;7.90;;;;;;;0.01;80.85;99518.80;128310;1109;23804;-55
2021/03/20 04:36:56;;;;;;;12.63;6.73;;;;;;;0.07;80.83;99527.92;128160;1112;23495;-55
2021/03/20 04:39:25;;;;;;;16.67;7.87;;;;;;;0.09;80.61;99526.72;128233;1112;23706;-55
2021/03/20 04:42:14;;;;;;;15.97;7.63;;;;;;;0.09;80.43;99523.22;128174;1112;22853;-55
2021/03/20 04:44:42;;;;;;;14.77;8.03;;;;;;;0.06;80.46;99536.98;128270;1112;23444;-55
2021/03/20 04:47:18;;;;;;;18.30;10.50;;;;;;;0.00;79.59;99536.70;128124;1112;23888;-55
2021/03/20 04:50:18;;;;;;;17.17;8.97;;;;;;;-0.05;79.89;99539.15;128016;1112;22994;-55
2021/03/20 04:52:47;;;;;;;19.07;9.73;;;;;;;-0.13;79.49;99541.92;128083;1112;23754;-55
2021/03/20 04:55:14;;;;;;;15.87;9.47;;;;;;;-0.16;79.85;99541.49;127856;1112;22835;-56
2021/03/20 04:57:47;;;;;;;18.40;9.67;;;;;;;-0.21;80.62;99544.73;128098;1112;23497;-56
2021/03/20 05:00:30;;;;;;;20.00;10.43;;;;;;;-0.22;80.19;99552.95;128264;1111;23586;-56
2021/03/20 05:03:24;;;;;;;27.17;13.43;;;;;;;-0.25;80.95;99556.81;127936;1112;22885;-57
2021/03/20 05:06:01;;;;;;;24.57;14.07;;;;;;;-0.32;81.10;99544.39;128253;1112;22918;-56
2021/03/20 05:08:51;;;;;;;20.68;12.33;;;;;;;-0.31;80.68;99560.27;128135;1112;23682;-56
2021/03/20 05:11:36;;;;;;;24.27;13.10;;;;;;;-0.37;80.49;99566.35;128275;1111;24198;-57
2021/03/20 05:14:14;;;;;;;20.17;10.80;;;;;;;-0.40;81.11;99564.88;128208;1108;22831;-56
2021/03/20 05:16:45;;;;;;;20.13;9.80;;;;;;;-0.41;79.97;99562.38;128305;1107;22862;-57
2021/03/20 05:19:12;;;;;;;20.70;10.73;;;;;;;-0.43;80.42;99565.23;128235;1108;23553;-57
2021/03/20 05:21:42;;;;;;;24.67;12.60;;;;;;;-0.44;80.51;99571.64;128342;1109;22856;-57
2021/03/20 05:24:22;;;;;;;20.00;11.27;;;;;;;-0.44;80.16;99570.80;128202;1108;24887;-56
2021/03/20 05:26:50;;;;;;;20.40;11.10;;;;;;;-0.44;80.06;99573.48;128324;1109;24342;-62
2021/03/20 05:29:17;;;;;;;20.67;11.77;;;;;;;-0.41;79.69;99570.41;128192;1108;22892;-56
2021/03/20 05:31:45;;;;;;;20.83;12.43;;;;;;;-0.36;78.69;99578.72;128354;1107;23023;-57
2021/03/20 05:34:18;;;;;;;20.20;11.13;;;;;;;-0.36;79.04;99568.02;128196;1108;23642;-56
2021/03/20 05:36:46;;;;;;;26.20;11.07;;;;;;;-0.22;79.45;99574.36;128368;1108;22871;-56
2021/03/20 05:39:15;;;;;;;19.57;10.17;;;;;;;-0.16;78.82;99568.27;128180;1108;23722;-56
2021/03/20 05:41:57;;;;;;;17.77;9.27;;;;;;;-0.10;78.09;99583.56;128319;1108;23333;-56
2021/03/20 05:44:39;;;;;;;16.93;8.27;;;;;;;-0.05;77.62;99586.52;128198;1107;23027;-56
2021/03/20 05:47:36;;;;;;;16.47;9.73;;;;;;;0.00;77.35;99571.53;128345;1108;22865;-56
2021/03/20 05:50:10;;;;;;;17.57;9.57;;;;;;;0.02;76.53;99582.05;128201;1107;22880;-56
2021/03/20 05:53:19;;;;;;;15.00;8.30;;;;;;;0.02;76.65;99581.23;128342;1108;23681;-56
2021/03/20 05:55:52;;;;;;;;;;;;;;;0.02;77.33;99576.70;128235;1106;24045;-56
2021/03/20 05:58:42;;;;;;;17.45;9.20;;;;;;;0.07;77.36;99576.97;128330;1106;21377;-56
2021/03/20 06:01:31;;;;;;;38.37;20.50;;;;;;;0.12;75.41;99587.96;128238;1106;23015;-56
2021/03/20 06:04:26;;;;;;;22.97;14.83;;;;;;;0.09;74.97;99598.22;128306;1107;22843;-57
2021/03/20 06:07:24;;;;;;;25.30;16.10;;;;;;;0.09;76.19;99588.33;125678;1109;23046;-55
2021/03/20 06:10:17;;;;;;;51.67;29.70;;;;;;;0.10;74.60;99589.16;128272;1107;22809;-56
2021/03/20 06:13:00;;;;;;;37.83;23.93;;;;;;;0.15;76.05;99592.92;128226;1108;22922;-57
2021/03/20 06:15:53;;;;;;;54.27;27.53;;;;;;;0.21;74.43;99594.85;128273;1106;23540;-56
2021/03/20 06:18:58;;;;;;;39.37;19.87;;;;;;;0.22;74.72;99598.36;128300;1106;22972;-56
2021/03/20 06:21:38;;;;;;;89.97;37.47;;;;;;;0.22;73.74;99593.84;128235;1108;23506;-57
2021/03/20 06:24:17;;;;;;;26.17;12.40;;;;;;;0.30;75.03;99590.19;128299;1105;22879;-58
2021/03/20 06:26:45;;;;;;;34.67;16.57;;;;;;;0.35;73.89;99599.33;128125;1107;23016;-57
2021/03/20 06:29:30;;;;;;;29.35;13.00;;;;;;;0.37;74.10;99612.55;128267;1106;22892;-57
2021/03/20 06:32:19;;;;;;;44.10;20.40;;;;;;;0.40;74.36;99606.81;128170;1107;22916;-57
2021/03/20 06:35:00;;;;;;;20.05;10.40;;;;;;;0.41;74.58;99607.64;128350;1108;22984;-57
2021/03/20 06:37:30;;;;;;;30.80;14.43;;;;;;;0.46;73.13;99615.92;128193;1107;23511;-57
2021/03/20 06:40:36;;;;;;;26.07;13.03;;;;;;;0.47;73.49;99614.91;128320;1108;23507;-57
2021/03/20 06:43:04;;;;;;;37.30;17.27;;;;;;;0.48;72.51;99613.88;128261;1110;23531;-56
2021/03/20 06:45:32;;;;;;;14.37;7.33;;;;;;;0.50;73.31;99620.72;128289;1111;22851;-55
2021/03/20 06:48:09;;;;;;;14.77;7.30;;;;;;;0.49;72.10;99611.02;128123;1111;22856;-56
2021/03/20 06:50:58;;;;;;;13.53;6.50;;;;;;;0.54;72.48;99623.86;128295;1110;22894;-56
2021/03/20 06:53:40;;;;;;;19.15;8.10;;;;;;;0.61;72.70;99622.88;128296;1110;22994;-56
2021/03/20 06:56:09;;;;;;;21.37;10.33;;;;;;;0.69;73.19;99624.62;128235;1112;22850;-56
2021/03/20 06:58:39;;;;;;;14.60;8.97;;;;;;;0.69;71.50;99628.14;128177;1110;22923;-56
2021/03/20 07:01:35;;;;;;;17.40;9.10;;;;;;;0.65;72.20;99626.85;128278;1111;22891;-56
2021/03/20 07:04:43;;;;;;;15.43;8.10;;;;;;;0.67;71.52;99622.13;128261;1112;22949;-56
2021/03/20 07:07:16;;;;;;;16.13;7.57;;;;;;;0.72;71.93;99631.46;124733;1112;23315;-56
2021/03/20 07:09:47;;;;;;;12.80;7.87;;;;;;;0.76;72.19;99625.50;128317;1111;22910;-56
2021/03/20 07:12:19;;;;;;;11.30;6.95;;;;;;;0.77;70.90;99629.84;128183;1111;23171;-56
2021/03/20 07:14:53;;;;;;;27.35;9.80;;;;;;;0.82;71.76;99638.16;128273;1110;23032;-56
2021/03/20 07:17:24;;;;;;;14.53;7.43;;;;;;;0.86;70.73;99630.56;128090;1111;22961;-56
2021/03/20 07:20:05;;;;;;;13.73;7.13;;;;;;;0.92;70.84;99641.33;128275;1107;23033;-56
2021/03/20 07:22:33;;;;;;;12.50;7.55;;;;;;;1.02;71.20;99644.50;128232;1106;22989;-56
2021/03/20 07:25:27;;;;;;;14.87;6.37;;;;;;;1.12;71.04;99643.36;128331;1107;22878;-56
2021/03/20 07:28:08;;;;;;;10.35;5.35;;;;;;;1.24;70.84;99650.69;128167;1108;24140;-56
2021/03/20 07:30:37;;;;;;;10.40;6.25;;;;;;;1.33;69.75;99651.36;128351;1109;23864;-56
2021/03/20 07:33:30;;;;;;;9.65;5.70;;;;;;;1.40;68.50;99650.39;128255;1109;22886;-56
2021/03/20 07:36:31;;;;;;;8.45;5.30;;;;;;;1.48;67.78;99651.25;126907;1108;26600;-54
2021/03/20 07:39:20;;;;;;;10.80;5.67;;;;;;;1.52;69.10;99656.05;124445;1109;23240;-55
2021/03/20 07:41:56;;;;;;;12.37;6.10;;;;;;;1.59;68.01;99654.22;128365;1108;22879;-57
2021/03/20 07:44:52;;;;;;;12.18;6.00;;;;;;;1.64;67.39;99664.38;128181;1108;22878;-58
2021/03/20 07:47:20;;;;;;;10.67;5.60;;;;;;;1.65;66.57;99660.67;128346;1108;22877;-56
2021/03/20 07:49:47;;;;;;;24.70;11.90;;;;;;;1.68;66.63;99665.66;128193;1109;23039;-58
2021/03/20 07:52:27;;;;;;;46.00;17.43;;;;;;;1.71;66.92;99663.41;128371;1108;23134;-56
2021/03/20 07:55:06;;;;;;;64.37;27.70;;;;;;;1.79;66.49;99657.03;128220;1108;22856;-56
2021/03/20 07:57:34;;;;;;;22.10;10.85;;;;;;;1.86;66.90;99657.92;128396;1108;23637;-56
2021/03/20 08:00:05;;;;;;;12.30;6.50;;;;;;;1.93;66.32;99661.45;128210;1108;22882;-56
2021/03/20 08:02:40;;;;;;;11.63;6.33;;;;;;;2.00;66.32;99664.19;128347;1107;22906;-56
2021/03/20 08:05:17;;;;;;;13.70;7.50;;;;;;;2.05;66.35;99659.85;128167;1107;24048;-57
2021/03/20 08:07:50;;;;;;;15.20;9.15;;;;;;;2.07;67.03;99655.11;128356;1107;22841;-57
2021/03/20 08:10:22;;;;;;;22.67;10.70;;;;;;;2.11;67.59;99655.55;128279;1107;22822;-57
2021/03/20 08:13:03;;;;;;;16.83;9.90;;;;;;;2.14;67.45;99660.53;128340;1107;22862;-57
2021/03/20 08:15:36;;;;;;;15.50;9.00;;;;;;;2.17;67.18;99668.17;127557;1107;23470;-55
2021/03/20 08:18:17;;;;;;;13.95;7.95;;;;;;;2.19;66.98;99658.05;124515;1108;23036;-55
2021/03/20 08:20:58;;;;;;;15.13;7.70;;;;;;;2.21;66.72;99672.13;128248;1108;22859;-56
2021/03/20 08:23:30;;;;;;;13.35;7.55;;;;;;;2.20;66.93;99675.84;128354;1108;22846;-56
2021/03/20 08:26:24;;;;;;;15.47;8.17;;;;;;;2.19;66.67;99671.48;128214;1108;22890;-56
2021/03/20 08:29:09;;;;;;;13.97;6.73;;;;;;;2.20;65.97;99675.84;128376;1107;22860;-56
2021/03/20 08:31:57;;;;;;;12.30;5.83;;;;;;;2.17;64.63;99670.02;128236;1108;22972;-56
2021/03/20 08:34:49;;;;;;;14.87;6.93;;;;;;;2.15;63.73;99678.31;128332;1108;23653;-56
2021/03/20 08:37:29;;;;;;;15.90;6.30;;;;;;;2.12;64.06;99673.34;128225;1108;22878;-56
2021/03/20 08:40:28;;;;;;;9.70;5.00;;;;;;;2.13;62.76;99673.14;128264;1109;22841;-56
2021/03/20 08:43:01;;;;;;;29.77;16.13;;;;;;;2.18;63.45;99677.89;128339;1106;22834;-56
2021/03/20 08:45:49;;;;;;;10.03;5.53;;;;;;;2.23;62.55;99679.98;128227;1106;23371;-56
2021/03/20 08:48:46;;;;;;;20.50;11.73;;;;;;;2.27;63.20;99674.02;128314;1108;22889;-56
2021/03/20 08:51:19;;;;;;;6.80;4.20;;;;;;;2.37;61.50;99671.78;128202;1108;22884;-56
2021/03/20 08:53:55;;;;;;;8.60;5.15;;;;;;;2.41;61.88;99673.05;128379;1106;22983;-56
2021/03/20 08:56:35;;;;;;;12.85;5.95;;;;;;;2.46;62.24;99675.94;128214;1107;22882;-56
2021/03/20 08:59:12;;;;;;;23.75;9.15;;;;;;;2.56;61.97;99664.81;128335;1106;23071;-56
2021/03/20 09:01:52;;;;;;;15.20;8.43;;;;;;;2.64;60.43;99677.23;128207;1106;22848;-56
2021/03/20 09:04:28;;;;;;;6.63;3.97;;;;;;;2.67;57.68;99677.66;128356;1107;23466;-56
2021/03/20 09:07:04;;;;;;;4.90;3.40;;;;;;;2.63;56.96;99679.09;128241;1108;23008;-56
2021/03/20 09:09:32;;;;;;;7.83;4.03;;;;;;;2.65;57.10;99681.58;128398;1106;23349;-56
2021/03/20 09:12:24;;;;;;;9.97;5.63;;;;;;;2.62;55.52;99669.36;128292;1106;22853;-56
2021/03/20 09:14:51;;;;;;;6.00;2.73;;;;;;;2.62;53.28;99665.84;128321;1108;23479;-56
2021/03/20 09:17:36;;;;;;;5.45;3.05;;;;;;;2.62;54.52;99674.74;128219;1108;23027;-56
2021/03/20 09:20:24;;;;;;;4.50;3.10;;;;;;;2.71;54.75;99678.09;128327;1106;22869;-56
2021/03/20 09:22:52;;;;;;;4.07;2.43;;;;;;;2.76;52.41;99679.13;128186;1106;22969;-56
2021/03/20 09:25:40;;;;;;;5.65;2.40;;;;;;;2.78;52.56;99671.68;128327;1108;22956;-56
2021/03/20 09:28:27;;;;;;;8.15;4.30;;;;;;;2.80;53.57;99679.55;128300;1107;22824;-56
2021/03/20 09:31:31;;;;;;;7.57;4.90;;;;;;;2.90;53.21;99682.67;128336;1108;22838;-56
2021/03/20 09:34:17;;;;;;;5.40;3.55;;;;;;;3.00;53.00;99682.29;128217;1108;23848;-56
2021/03/20 09:36:51;;;;;;;5.50;3.60;;;;;;;3.06;51.93;99681.45;128342;1107;22954;-56
2021/03/20 09:39:43;;;;;;;5.00;2.83;;;;;;;3.10;51.09;99686.23;128174;1107;22943;-56
2021/03/20 09:42:28;;;;;;;6.15;2.90;;;;;;;3.17;51.61;99678.17;128370;1107;22827;-56
2021/03/20 09:44:56;;;;;;;5.05;3.30;;;;;;;3.25;51.19;99666.35;128188;1109;25260;-56
2021/03/20 09:47:33;;;;;;;3.95;2.70;;;;;;;3.25;50.54;99677.12;124863;1106;23112;-55
2021/03/20 09:50:10;;;;;;;5.70;3.70;;;;;;;3.26;50.44;99676.92;128244;1107;22842;-56
2021/03/20 09:52:55;;;;;;;6.35;3.25;;;;;;;3.28;51.51;99674.85;128401;1106;22854;-56
2021/03/20 09:55:29;;;;;;;5.73;3.77;;;;;;;3.32;50.76;99665.30;128311;1106;23023;-56
2021/03/20 09:57:57;;;;;;;4.95;3.25;;;;;;;3.37;51.23;99675.45;128305;1109;23623;-56
2021/03/20 10:00:52;;;;;;;4.90;3.33;;;;;;;3.40;50.52;99666.97;128256;1106;23007;-56
2021/03/20 10:03:49;;;;;;;5.15;3.10;;;;;;;3.40;51.42;99666.97;128370;1106;23586;-56
2021/03/20 10:06:23;;;;;;;4.30;3.17;;;;;;;3.45;50.94;99665.33;128332;1108;22825;-56
2021/03/20 10:09:10;;;;;;;6.20;3.60;;;;;;;3.49;50.72;99660.33;128199;1108;22815;-56
2021/03/20 10:11:51;;;;;;;4.83;3.15;;;;;;;3.48;49.59;99662.19;128366;1108;22847;-56
2021/03/20 10:14:32;;;;;;;7.85;4.25;;;;;;;3.44;49.80;99662.84;128208;1106;22847;-56
2021/03/20 10:17:15;;;;;;;7.93;3.27;;;;;;;3.44;50.45;99666.36;125469;1108;26208;-55
2021/03/20 10:19:47;;;;;;;8.97;5.83;;;;;;;3.48;50.39;99664.88;128221;1107;23019;-56
2021/03/20 10:22:29;;;;;;;6.95;4.30;;;;;;;3.52;50.54;99666.13;128333;1107;23662;-56
2021/03/20 10:24:58;;;;;;;6.80;4.10;;;;;;;3.55;50.39;99659.50;128247;1106;22825;-56
2021/03/20 10:27:41;;;;;;;7.90;3.70;;;;;;;3.55;50.42;99667.58;128367;1107;23481;-56
2021/03/20 10:30:16;;;;;;;6.65;3.75;;;;;;;3.55;51.82;99664.89;128141;1106;23217;-56
2021/03/20 10:32:55;;;;;;;4.53;2.77;;;;;;;3.58;51.82;99669.86;128300;1106;22930;-56
2021/03/20 10:35:29;;;;;;;8.75;3.35;;;;;;;3.65;52.55;99667.14;128214;1106;22882;-56
2021/03/20 10:37:57;;;;;;;4.70;3.00;;;;;;;3.72;52.49;99658.03;128334;1106;25126;-56
2021/03/20 10:40:26;;;;;;;6.50;3.27;;;;;;;3.83;52.19;99659.23;128229;1106;22936;-56
2021/03/20 10:42:57;;;;;;;4.95;3.00;;;;;;;3.93;51.79;99653.41;128317;1108;23077;-56
2021/03/20 10:45:37;;;;;;;5.10;3.10;;;;;;;4.04;50.29;99658.95;128256;1106;22954;-56
2021/03/20 10:48:11;;;;;;;6.70;3.00;;;;;;;4.05;50.06;99651.70;128281;1108;22803;-56
2021/03/20 10:50:49;;;;;;;5.97;3.40;;;;;;;4.14;50.94;99655.84;128201;1106;22806;-56
2021/03/20 10:53:19;;;;;;;8.68;4.65;;;;;;;4.22;50.52;99663.67;128324;1107;22883;-56
2021/03/20 10:55:53;;;;;;;7.57;4.77;;;;;;;4.25;50.01;99658.69;128203;1106;22862;-57
2021/03/20 10:58:32;;;;;;;12.25;6.65;;;;;;;4.22;49.94;99658.28;128310;1106;22967;-57
2021/03/20 11:01:00;;;;;;;5.40;3.40;;;;;;;4.13;48.87;99663.09;128238;1106;23030;-57
2021/03/20 11:03:43;;;;;;;8.87;5.60;;;;;;;4.05;49.68;99651.70;128309;1107;22862;-57
2021/03/20 11:06:19;;;;;;;12.20;8.75;;;;;;;3.99;49.27;99658.79;128254;1109;22903;-56
2021/03/20 11:09:03;;;;;;;7.90;5.80;;;;;;;3.95;50.02;99654.02;128368;1106;22815;-57
2021/03/20 11:11:35;;;;;;;6.27;3.27;;;;;;;3.91;49.35;99649.05;128214;1107;22837;-57
2021/03/20 11:14:03;;;;;;;12.35;6.60;;;;;;;3.88;49.65;99651.36;128296;1106;22897;-57
2021/03/20 11:16:31;;;;;;;6.40;3.20;;;;;;;3.88;49.05;99660.28;128198;1106;22889;-56
2021/03/20 11:19:05;;;;;;;6.73;4.30;;;;;;;3.90;50.25;99662.73;128314;1107;22832;-57
2021/03/20 11:21:41;;;;;;;7.50;3.45;;;;;;;3.89;50.92;99661.94;128245;1107;22985;-57
2021/03/20 11:24:28;;;;;;;6.00;3.40;;;;;;;3.90;51.15;99668.13;128339;1106;22993;-57
2021/03/20 11:26:56;;;;;;;5.70;3.70;;;;;;;3.86;51.49;99667.74;125465;1106;26041;-55
2021/03/20 11:29:26;;;;;;;8.55;3.00;;;;;;;3.83;51.84;99659.23;124542;1106;23106;-55
2021/03/20 11:32:06;;;;;;;5.35;3.25;;;;;;;3.75;51.41;99668.36;128261;1107;26902;-56
2021/03/20 11:34:41;;;;;;;4.80;2.85;;;;;;;3.62;50.45;99668.39;128253;1108;22973;-56
2021/03/20 11:37:15;;;;;;;3.87;2.57;;;;;;;3.54;51.73;99674.00;128216;1107;23035;-56
2021/03/20 11:39:43;;;;;;;5.65;2.90;;;;;;;3.45;51.77;99669.88;128341;1108;22954;-56
2021/03/20 11:42:11;;;;;;;4.20;2.80;;;;;;;3.42;53.32;99671.13;128355;1105;23801;-56
2021/03/20 11:44:44;;;;;;;6.30;3.70;;;;;;;3.43;53.87;99658.48;128212;1107;22856;-56
2021/03/20 11:47:32;;;;;;;5.87;3.27;;;;;;;3.50;53.55;99659.29;128224;1107;23522;-56
2021/03/20 11:50:01;;;;;;;5.37;2.90;;;;;;;3.59;53.45;99666.14;128300;1108;22834;-56
2021/03/20 11:52:34;;;;;;;5.15;2.85;;;;;;;3.67;53.19;99660.52;128300;1107;23708;-56
2021/03/20 11:55:07;;;;;;;4.40;2.65;;;;;;;3.77;52.65;99658.20;128253;1108;22835;-56
2021/03/20 11:57:39;;;;;;;6.40;3.47;;;;;;;3.85;52.47;99652.61;128282;1107;23360;-56
2021/03/20 12:00:34;;;;;;;8.60;4.37;;;;;;;3.93;53.57;99653.41;128212;1108;22932;-56
2021/03/20 12:03:02;;;;;;;7.05;3.55;;;;;;;3.98;52.16;99656.30;128270;1107;22838;-56
2021/03/20 12:05:33;;;;;;;6.75;4.30;;;;;;;3.96;52.70;99651.12;128272;1105;22925;-56
2021/03/20 12:08:19;;;;;;;7.10;4.50;;;;;;;3.96;52.85;99647.59;128353;1106;23484;-56
2021/03/20 12:11:09;;;;;;;4.55;3.20;;;;;;;3.96;52.71;99648.42;128320;1107;23556;-56
2021/03/20 12:13:40;;;;;;;8.03;4.10;;;;;;;4.00;52.01;99638.05;128244;1108;22853;-55